Withee, Wisconsin
Current Conditions -  °F | °C
As of 12:35 PM on Monday 22 Dec 2014 (Local Time) from KMDZ Reporting Station
Haze Haze  
Wind Chill: 26°   Ceiling: 500
Heat Index: 33°   Visibility: 2.5mi
Dew Point: 32°   Wind: 8mph
Humidity: 96%   Direction: 110°ESE
Pressure: 29.72"   Gusts: NA
Location:  44.96°N, 90.6°W
Report Text: KMDZ 221835Z AUTO 11007KT 2 1/2SM BR OVC005 01/00 A2972 RMK AO2 T00051001
Loading
Personal Weather Stations






























Interactive Weather Map New forecast layout! Learn more

10-Day Weather Forecast

Advertisements
Track Severe Weather on mobile